METAR Data
IDs: Format: Raw Decoded Include TAF

Data at: 2037 UTC 19 May 2019

KMQY 191956Z 19010G16KT 10SM BKN065 BKN075 OVC090 24/17 A2993 RMK AO2 RAE02 SLP025 P0000 T02390172